Akhiok, Alaska
Current Conditions -  °F | °C
As of 5:53 AM on Friday 19 Dec 2014 (Local Time) from PADQ Reporting Station
Light Rain Light Rain  
Wind Chill: 35°   Ceiling: 2300
Heat Index: 44°   Visibility: 7mi
Dew Point: 42°   Wind: 24mph
Humidity: 93%   Direction: 30°NNE
Pressure: 28.87"   Gusts: 37mph
Location:  57.454°N, 153.546°W
Report Text: PADQ 191453Z 03021G32KT 7SM -RA FEW017 BKN023 OVC030 07/06 A2887 RMK AO2 PK WND 01035/1431 RAE03B28 SLP775 P0000 60009 T00670056 56025
Loading
Personal Weather Stations






























Interactive Weather Map New forecast layout! Learn more

10-Day Weather Forecast

Advertisements
Track Severe Weather on mobile